createdAt,value
2019-06-25T00:00:21.754Z,0
2019-06-25T00:01:21.630Z,0
2019-06-25T00:02:21.641Z,0
2019-06-25T00:03:21.637Z,0
2019-06-25T00:04:21.708Z,0
2019-06-25T00:05:21.641Z,0
2019-06-25T00:06:21.715Z,0
2019-06-25T00:07:21.639Z,0
2019-06-25T00:08:21.719Z,0
2019-06-25T00:09:21.648Z,0
2019-06-25T00:10:21.718Z,0
2019-06-25T00:11:21.645Z,0
2019-06-25T00:12:21.641Z,0
2019-06-25T00:13:21.638Z,0
2019-06-25T00:14:21.715Z,0
2019-06-25T00:15:21.641Z,0
2019-06-25T00:16:21.711Z,0
2019-06-25T00:17:21.637Z,0
2019-06-25T00:18:21.640Z,0
2019-06-25T00:19:21.639Z,0
2019-06-25T00:20:21.647Z,0
2019-06-25T00:21:21.711Z,0
2019-06-25T00:22:21.649Z,0
2019-06-25T00:23:21.710Z,0
2019-06-25T00:24:21.718Z,0
2019-06-25T00:25:21.726Z,0
2019-06-25T00:26:21.648Z,0
2019-06-25T00:27:21.711Z,0
2019-06-25T00:28:21.648Z,0
2019-06-25T00:29:21.718Z,0
2019-06-25T00:30:21.671Z,0
2019-06-25T00:31:21.647Z,0
2019-06-25T00:32:21.727Z,0
2019-06-25T00:33:21.666Z,0
2019-06-25T00:34:21.660Z,0
2019-06-25T00:35:21.662Z,0
2019-06-25T00:36:21.661Z,0
2019-06-25T00:37:21.679Z,0
2019-06-25T00:38:21.735Z,0
2019-06-25T00:39:21.660Z,0
2019-06-25T00:40:21.735Z,0
2019-06-25T00:41:21.755Z,0
2019-06-25T00:42:21.730Z,0
2019-06-25T00:43:21.651Z,0
2019-06-25T00:44:21.724Z,0
2019-06-25T00:45:21.654Z,0
2019-06-25T00:46:21.725Z,0
2019-06-25T00:47:21.650Z,0
2019-06-25T00:48:21.661Z,0
2019-06-25T00:49:21.732Z,0
2019-06-25T00:50:21.737Z,0
2019-06-25T00:51:21.728Z,0
2019-06-25T00:52:21.752Z,0
2019-06-25T00:53:21.750Z,0
2019-06-25T00:54:21.675Z,0
2019-06-25T00:55:21.772Z,0
2019-06-25T00:56:21.681Z,0
2019-06-25T00:57:21.770Z,0
2019-06-25T00:58:21.686Z,0
2019-06-25T00:59:21.677Z,0
2019-06-25T01:00:21.677Z,0
2019-06-25T01:01:21.776Z,0
2019-06-25T01:02:21.751Z,0
2019-06-25T01:03:21.759Z,0
2019-06-25T01:04:21.811Z,0
2019-06-25T01:05:21.691Z,0
2019-06-25T01:06:21.755Z,0
2019-06-25T01:07:21.760Z,0
2019-06-25T01:08:21.775Z,0
2019-06-25T01:09:21.758Z,0
2019-06-25T01:10:21.688Z,0
2019-06-25T01:11:21.758Z,0
2019-06-25T01:12:21.685Z,0
2019-06-25T01:13:21.748Z,0
2019-06-25T01:14:21.680Z,0
2019-06-25T01:15:21.749Z,0
2019-06-25T01:16:21.750Z,0
2019-06-25T01:17:21.685Z,0
2019-06-25T01:18:21.752Z,0
2019-06-25T01:19:21.750Z,0
2019-06-25T01:20:21.787Z,0
2019-06-25T01:21:21.684Z,0
2019-06-25T01:22:21.775Z,0
2019-06-25T01:23:21.770Z,0
2019-06-25T01:24:21.700Z,0
2019-06-25T01:25:21.826Z,0
2019-06-25T01:26:21.775Z,0
2019-06-25T01:27:21.772Z,0
2019-06-25T01:28:21.773Z,0
2019-06-25T01:29:21.775Z,0
2019-06-25T01:30:29.387Z,0
2019-06-25T01:31:21.684Z,0
2019-06-25T01:32:21.761Z,0
2019-06-25T01:33:21.770Z,0
2019-06-25T01:34:21.706Z,0
2019-06-25T01:35:21.767Z,0
2019-06-25T01:36:21.700Z,0
2019-06-25T01:37:21.811Z,0
2019-06-25T01:38:21.712Z,0
2019-06-25T01:39:21.733Z,0
2019-06-25T01:40:21.784Z,0
2019-06-25T01:41:21.776Z,0
2019-06-25T01:42:21.717Z,0
2019-06-25T01:43:21.714Z,0
2019-06-25T01:44:21.805Z,0
2019-06-25T01:45:21.813Z,0
2019-06-25T01:46:21.802Z,0
2019-06-25T01:47:21.790Z,0
2019-06-25T01:48:21.793Z,0
2019-06-25T01:49:21.784Z,0
2019-06-25T01:50:21.790Z,0
2019-06-25T01:51:21.717Z,0
2019-06-25T01:52:21.715Z,0
2019-06-25T01:53:21.779Z,0
2019-06-25T01:54:21.717Z,0
2019-06-25T01:55:21.782Z,0
2019-06-25T01:56:21.778Z,0
2019-06-25T01:57:21.705Z,0
2019-06-25T01:58:21.782Z,0
2019-06-25T01:59:21.713Z,0
2019-06-25T02:00:21.788Z,0
2019-06-25T02:01:21.784Z,0
2019-06-25T02:02:21.801Z,0
2019-06-25T02:03:21.686Z,0
2019-06-25T02:04:21.738Z,0
2019-06-25T02:05:21.792Z,0
2019-06-25T02:06:21.830Z,0
2019-06-25T02:07:21.740Z,0
2019-06-25T02:08:21.758Z,0
2019-06-25T02:09:21.730Z,0
2019-06-25T02:10:22.886Z,0
2019-06-25T02:11:21.809Z,0
2019-06-25T02:12:21.793Z,0
2019-06-25T02:13:21.735Z,0
2019-06-25T02:14:21.795Z,0
2019-06-25T02:15:21.739Z,0
2019-06-25T02:16:21.795Z,0
2019-06-25T02:17:21.727Z,0
2019-06-25T02:18:21.797Z,0
2019-06-25T02:19:21.749Z,0
2019-06-25T02:20:21.727Z,0
2019-06-25T02:21:21.739Z,0
2019-06-25T02:22:21.731Z,0
2019-06-25T02:23:21.802Z,0
2019-06-25T02:24:21.741Z,0
2019-06-25T02:25:21.875Z,0
2019-06-25T02:26:21.804Z,0
2019-06-25T02:27:21.757Z,0
2019-06-25T02:28:21.822Z,0
2019-06-25T02:29:21.807Z,0
2019-06-25T02:30:21.817Z,0
2019-06-25T02:31:21.735Z,0
2019-06-25T02:32:21.825Z,0
2019-06-25T02:33:21.827Z,0
2019-06-25T02:34:21.748Z,0
2019-06-25T02:35:21.783Z,0
2019-06-25T02:36:21.821Z,0
2019-06-25T02:37:21.753Z,0
2019-06-25T02:38:21.827Z,0
2019-06-25T02:39:21.847Z,0
2019-06-25T02:40:21.832Z,0
2019-06-25T02:41:21.828Z,0
2019-06-25T02:42:21.814Z,0
2019-06-25T02:43:21.829Z,0
2019-06-25T02:44:21.767Z,0
2019-06-25T02:45:21.823Z,0
2019-06-25T02:46:21.747Z,0
2019-06-25T02:47:21.819Z,0
2019-06-25T02:48:21.749Z,5
2019-06-25T02:49:21.825Z,5
2019-06-25T02:50:21.747Z,5
2019-06-25T02:51:21.721Z,5
2019-06-25T02:52:21.809Z,5
2019-06-25T02:53:21.787Z,5
2019-06-25T02:54:21.741Z,5
2019-06-25T02:55:21.726Z,11
2019-06-25T02:56:21.714Z,11
2019-06-25T02:57:21.712Z,11
2019-06-25T02:58:21.786Z,11
2019-06-25T02:59:21.731Z,16
2019-06-25T03:00:21.829Z,16
2019-06-25T03:01:28.684Z,16
2019-06-25T03:02:21.774Z,22
2019-06-25T03:03:21.843Z,22
2019-06-25T03:04:21.791Z,22
2019-06-25T03:05:21.799Z,28
2019-06-25T03:06:21.860Z,28
2019-06-25T03:07:21.836Z,28
2019-06-25T03:08:21.859Z,33
2019-06-25T03:09:21.850Z,33
2019-06-25T03:10:21.778Z,39
2019-06-25T03:11:21.855Z,39
2019-06-25T03:12:21.778Z,45
2019-06-25T03:13:21.781Z,45
2019-06-25T03:14:21.803Z,50
2019-06-25T03:15:21.781Z,56
2019-06-25T03:16:21.809Z,56
2019-06-25T03:17:21.780Z,61
2019-06-25T03:18:21.855Z,67
2019-06-25T03:19:21.853Z,67
2019-06-25T03:20:21.965Z,73
2019-06-25T03:21:21.787Z,78
2019-06-25T03:22:21.856Z,78
2019-06-25T03:23:21.860Z,84
2019-06-25T03:24:21.859Z,90
2019-06-25T03:25:21.858Z,95
2019-06-25T03:26:21.862Z,95
2019-06-25T03:27:21.858Z,95
2019-06-25T03:28:21.788Z,101
2019-06-25T03:29:21.791Z,106
2019-06-25T03:30:21.902Z,106
2019-06-25T03:31:21.796Z,112
2019-06-25T03:32:21.803Z,118
2019-06-25T03:33:21.870Z,123
2019-06-25T03:34:21.872Z,135
2019-06-25T03:35:21.815Z,140
2019-06-25T03:36:21.868Z,146
2019-06-25T03:37:21.866Z,146
2019-06-25T03:38:21.894Z,151
2019-06-25T03:39:21.790Z,157
2019-06-25T03:40:21.804Z,168
2019-06-25T03:41:21.881Z,174
2019-06-25T03:42:21.757Z,180
2019-06-25T03:43:21.792Z,191
2019-06-25T03:44:21.825Z,196
2019-06-25T03:45:21.827Z,202
2019-06-25T03:46:21.752Z,208
2019-06-25T03:47:21.772Z,213
2019-06-25T03:48:21.898Z,219
2019-06-25T03:49:21.805Z,225
2019-06-25T03:50:21.816Z,230
2019-06-25T03:51:21.769Z,241
2019-06-25T03:52:21.872Z,247
2019-06-25T03:53:21.808Z,253
2019-06-25T03:54:21.999Z,258
2019-06-25T03:55:21.815Z,264
2019-06-25T03:56:21.876Z,270
2019-06-25T03:57:21.880Z,275
2019-06-25T03:58:21.880Z,281
2019-06-25T03:59:21.811Z,281
2019-06-25T04:00:21.882Z,286
2019-06-25T04:01:21.894Z,286
2019-06-25T04:02:21.873Z,292
2019-06-25T04:03:21.873Z,298
2019-06-25T04:04:21.816Z,298
2019-06-25T04:05:21.873Z,303
2019-06-25T04:06:21.805Z,309
2019-06-25T04:07:21.817Z,309
2019-06-25T04:08:21.794Z,315
2019-06-25T04:09:21.761Z,320
2019-06-25T04:10:21.883Z,320
2019-06-25T04:11:21.792Z,326
2019-06-25T04:12:21.835Z,331
2019-06-25T04:13:21.895Z,331
2019-06-25T04:14:21.900Z,337
2019-06-25T04:15:21.895Z,337
2019-06-25T04:16:21.840Z,343
2019-06-25T04:17:21.830Z,348
2019-06-25T04:18:21.914Z,348
2019-06-25T04:19:21.898Z,354
2019-06-25T04:20:21.907Z,354
2019-06-25T04:21:21.905Z,354
2019-06-25T04:22:21.909Z,360
2019-06-25T04:23:21.898Z,360
2019-06-25T04:24:21.843Z,360
2019-06-25T04:25:21.835Z,360
2019-06-25T04:26:21.839Z,365
2019-06-25T04:27:21.838Z,365
2019-06-25T04:28:21.907Z,371
2019-06-25T04:29:21.904Z,376
2019-06-25T04:30:21.917Z,382
2019-06-25T04:31:21.844Z,382
2019-06-25T04:32:32.660Z,382
2019-06-25T04:33:21.912Z,388
2019-06-25T04:34:21.844Z,388
2019-06-25T04:35:21.910Z,388
2019-06-25T04:36:21.917Z,393
2019-06-25T04:37:21.843Z,399
2019-06-25T04:38:21.910Z,405
2019-06-25T04:39:21.849Z,416
2019-06-25T04:40:21.913Z,421
2019-06-25T04:41:21.847Z,427
2019-06-25T04:42:21.828Z,427
2019-06-25T04:43:21.832Z,433
2019-06-25T04:44:21.909Z,438
2019-06-25T04:45:21.836Z,438
2019-06-25T04:46:21.833Z,444
2019-06-25T04:47:21.903Z,450
2019-06-25T04:48:21.911Z,450
2019-06-25T04:49:21.838Z,455
2019-06-25T04:50:21.835Z,461
2019-06-25T04:51:21.914Z,466
2019-06-25T04:52:21.914Z,466
2019-06-25T04:53:21.847Z,472
2019-06-25T04:54:21.879Z,472
2019-06-25T04:55:21.850Z,478
2019-06-25T04:56:21.909Z,489
2019-06-25T04:57:21.854Z,495
2019-06-25T04:58:21.920Z,506
2019-06-25T04:59:21.851Z,517
2019-06-25T05:00:21.922Z,528
2019-06-25T05:01:21.856Z,540
2019-06-25T05:02:21.921Z,551
2019-06-25T05:03:21.855Z,551
2019-06-25T05:04:21.835Z,562
2019-06-25T05:05:21.868Z,562
2019-06-25T05:06:21.925Z,568
2019-06-25T05:07:21.855Z,573
2019-06-25T05:08:21.931Z,585
2019-06-25T05:09:21.849Z,590
2019-06-25T05:10:21.896Z,596
2019-06-25T05:11:21.947Z,601
2019-06-25T05:12:21.812Z,607
2019-06-25T05:13:21.892Z,613
2019-06-25T05:14:24.719Z,618
2019-06-25T05:15:21.813Z,618
2019-06-25T05:16:21.979Z,618
2019-06-25T05:17:21.950Z,624
2019-06-25T05:18:21.888Z,630
2019-06-25T05:19:21.809Z,641
2019-06-25T05:20:21.931Z,641
2019-06-25T05:21:21.928Z,646
2019-06-25T05:22:21.883Z,646
2019-06-25T05:23:21.835Z,646
2019-06-25T05:24:21.883Z,646
2019-06-25T05:25:21.947Z,646
2019-06-25T05:26:21.879Z,646
2019-06-25T05:27:21.883Z,646
2019-06-25T05:28:21.947Z,646
2019-06-25T05:29:21.949Z,652
2019-06-25T05:30:21.896Z,652
2019-06-25T05:31:21.886Z,652
2019-06-25T05:32:21.959Z,652
2019-06-25T05:33:21.954Z,658
2019-06-25T05:34:21.897Z,663
2019-06-25T05:35:24.210Z,663
2019-06-25T05:36:21.989Z,675
2019-06-25T05:37:21.956Z,680
2019-06-25T05:38:21.972Z,680
2019-06-25T05:39:21.961Z,691
2019-06-25T05:40:21.895Z,691
2019-06-25T05:41:21.979Z,697
2019-06-25T05:42:21.898Z,697
2019-06-25T05:43:21.964Z,708
2019-06-25T05:44:21.902Z,720
2019-06-25T05:45:21.964Z,849
2019-06-25T05:46:21.899Z,1046
2019-06-25T05:47:21.992Z,1203
2019-06-25T05:48:21.988Z,1282
2019-06-25T05:49:21.897Z,1293
2019-06-25T05:50:21.913Z,1271
2019-06-25T05:51:21.861Z,1226
2019-06-25T05:52:21.897Z,1428
2019-06-25T05:53:21.970Z,1524
2019-06-25T05:54:21.908Z,1636
2019-06-25T05:55:21.970Z,1665
2019-06-25T05:56:21.994Z,1614
2019-06-25T05:57:22.041Z,1620
2019-06-25T05:58:22.004Z,1546
2019-06-25T05:59:21.972Z,1411
2019-06-25T06:00:22.041Z,1496
2019-06-25T06:01:21.983Z,1479
2019-06-25T06:02:21.905Z,1400
2019-06-25T06:03:21.968Z,1496
2019-06-25T06:04:21.905Z,1546
2019-06-25T06:05:21.906Z,1563
2019-06-25T06:06:21.978Z,1575
2019-06-25T06:07:21.893Z,1586
2019-06-25T06:08:21.973Z,1631
2019-06-25T06:09:21.969Z,1681
2019-06-25T06:10:21.878Z,1704
2019-06-25T06:11:21.919Z,1755
2019-06-25T06:12:22.047Z,1541
2019-06-25T06:13:21.910Z,1715
2019-06-25T06:14:21.924Z,1721
2019-06-25T06:15:21.930Z,1687
2019-06-25T06:16:21.985Z,1726
2019-06-25T06:17:21.929Z,1760
2019-06-25T06:18:21.985Z,1710
2019-06-25T06:19:22.002Z,1530
2019-06-25T06:20:21.944Z,1501
2019-06-25T06:21:21.919Z,1451
2019-06-25T06:22:21.927Z,1440
2019-06-25T06:23:22.000Z,1530
2019-06-25T06:24:22.101Z,1591
2019-06-25T06:25:22.086Z,1648
2019-06-25T06:26:21.991Z,1670
2019-06-25T06:27:22.005Z,1760
2019-06-25T06:28:22.028Z,1890
2019-06-25T06:29:22.006Z,1929
2019-06-25T06:30:21.998Z,1968
2019-06-25T06:31:21.928Z,2109
2019-06-25T06:32:21.991Z,2176
2019-06-25T06:33:35.342Z,2227
2019-06-25T06:34:21.915Z,2250
2019-06-25T06:35:21.990Z,2261
2019-06-25T06:36:21.989Z,2311
2019-06-25T06:37:22.053Z,2340
2019-06-25T06:38:22.022Z,2103
2019-06-25T06:39:21.918Z,2120
2019-06-25T06:40:21.998Z,1974
2019-06-25T06:41:22.000Z,2193
2019-06-25T06:42:21.959Z,2182
2019-06-25T06:43:22.023Z,2345
2019-06-25T06:44:22.026Z,2458
2019-06-25T06:45:21.938Z,2373
2019-06-25T06:46:21.946Z,2435
2019-06-25T06:47:22.010Z,2469
2019-06-25T06:48:22.013Z,2446
2019-06-25T06:49:21.941Z,2435
2019-06-25T06:50:21.912Z,2413
2019-06-25T06:51:22.015Z,2289
2019-06-25T06:52:22.018Z,2368
2019-06-25T06:53:21.949Z,2255
2019-06-25T06:54:21.947Z,2143
2019-06-25T06:55:21.961Z,2143
2019-06-25T06:56:22.034Z,2171
2019-06-25T06:57:22.091Z,2266
2019-06-25T06:58:22.024Z,2351
2019-06-25T06:59:21.965Z,2576
2019-06-25T07:00:22.027Z,2666
2019-06-25T07:01:22.026Z,2756
2019-06-25T07:02:21.948Z,2896
2019-06-25T07:03:22.022Z,3003
2019-06-25T07:04:22.035Z,3060
2019-06-25T07:05:22.050Z,2913
2019-06-25T07:06:21.980Z,2688
2019-06-25T07:07:22.025Z,2626
2019-06-25T07:08:21.967Z,2565
2019-06-25T07:09:22.077Z,2514
2019-06-25T07:10:21.979Z,2351
2019-06-25T07:11:21.955Z,2362
2019-06-25T07:12:22.135Z,2536
2019-06-25T07:13:21.957Z,2756
2019-06-25T07:14:21.976Z,2745
2019-06-25T07:15:22.030Z,2801
2019-06-25T07:17:22.030Z,2823
2019-06-25T07:18:21.966Z,2626
2019-06-25T07:19:21.965Z,2576
2019-06-25T07:20:32.806Z,2660
2019-06-25T07:21:22.056Z,2638
2019-06-25T07:22:22.035Z,2604
2019-06-25T07:23:21.974Z,2514
2019-06-25T07:24:21.936Z,2570
2019-06-25T07:25:21.901Z,2671
2019-06-25T07:26:21.950Z,2671
2019-06-25T07:27:21.903Z,2615
2019-06-25T07:28:22.030Z,2463
2019-06-25T07:29:21.930Z,2497
2019-06-25T07:30:21.940Z,2688
2019-06-25T07:31:21.915Z,2998
2019-06-25T07:32:21.936Z,3009
2019-06-25T07:33:22.044Z,3020
2019-06-25T07:34:21.974Z,3088
2019-06-25T07:35:22.046Z,3200
2019-06-25T07:36:21.981Z,3234
2019-06-25T07:37:21.996Z,3307
2019-06-25T07:38:22.048Z,3217
2019-06-25T07:39:22.059Z,3240
2019-06-25T07:40:22.055Z,3178
2019-06-25T07:41:21.994Z,3223
2019-06-25T07:42:22.049Z,3245
2019-06-25T07:43:22.061Z,3245
2019-06-25T07:44:21.989Z,3211
2019-06-25T07:45:22.013Z,3166
2019-06-25T07:46:21.992Z,3268
2019-06-25T07:47:22.067Z,3144
2019-06-25T07:48:21.992Z,3093
2019-06-25T07:49:22.069Z,3200
2019-06-25T07:50:22.015Z,3166
2019-06-25T07:51:21.985Z,3082
2019-06-25T07:52:21.992Z,3155
2019-06-25T07:53:22.062Z,3217
2019-06-25T07:54:21.999Z,3121
2019-06-25T07:55:21.989Z,3048
2019-06-25T07:56:35.622Z,3391
2019-06-25T07:57:22.063Z,3487
2019-06-25T07:58:22.954Z,3459
2019-06-25T07:59:22.095Z,3459
2019-06-25T08:00:22.089Z,3515
2019-06-25T08:01:21.994Z,3571
2019-06-25T08:02:22.078Z,3639
2019-06-25T08:03:21.971Z,3678
2019-06-25T08:04:25.810Z,3605
2019-06-25T08:05:22.010Z,3465
2019-06-25T08:06:22.008Z,3560
2019-06-25T08:07:22.071Z,3555
2019-06-25T08:08:22.000Z,3571
2019-06-25T08:09:22.010Z,3706
2019-06-25T08:10:22.003Z,3498
2019-06-25T08:11:22.008Z,3718
2019-06-25T08:12:22.077Z,3853
2019-06-25T08:13:22.077Z,3915
2019-06-25T08:14:22.085Z,3796
2019-06-25T08:15:22.188Z,3853
2019-06-25T08:16:22.090Z,3915
2019-06-25T08:17:22.006Z,3982
2019-06-25T08:18:22.050Z,3903
2019-06-25T08:19:22.095Z,3864
2019-06-25T08:20:22.012Z,3763
2019-06-25T08:21:22.091Z,3960
2019-06-25T08:22:22.088Z,4033
2019-06-25T08:23:22.023Z,3937
2019-06-25T08:24:22.092Z,3954
2019-06-25T08:25:22.083Z,4083
2019-06-25T08:26:22.016Z,4095
2019-06-25T08:27:22.051Z,3988
2019-06-25T08:28:22.095Z,3903
2019-06-25T08:29:22.020Z,3920
2019-06-25T08:30:22.097Z,3774
2019-06-25T08:31:22.035Z,3830
2019-06-25T08:32:25.488Z,3853
2019-06-25T08:33:22.122Z,3903
2019-06-25T08:34:22.022Z,3943
2019-06-25T08:35:22.159Z,4038
2019-06-25T08:36:22.072Z,4111
2019-06-25T08:37:22.101Z,4066
2019-06-25T08:38:22.092Z,4168
2019-06-25T08:39:22.097Z,4196
2019-06-25T08:40:22.100Z,4213
2019-06-25T08:41:22.108Z,4213
2019-06-25T08:42:22.097Z,4207
2019-06-25T08:43:22.143Z,4173
2019-06-25T08:44:22.059Z,4145
2019-06-25T08:45:22.091Z,4106
2019-06-25T08:46:22.155Z,4089
2019-06-25T08:47:22.100Z,4061
2019-06-25T08:48:22.089Z,4078
2019-06-25T08:49:22.029Z,4106
2019-06-25T08:50:22.090Z,4100
2019-06-25T08:51:22.101Z,4089
2019-06-25T08:52:22.091Z,4106
2019-06-25T08:53:22.052Z,4111
2019-06-25T08:54:21.983Z,4156
2019-06-25T08:55:22.091Z,4207
2019-06-25T08:56:21.976Z,4263
2019-06-25T08:57:22.058Z,4336
2019-06-25T08:58:22.098Z,4381
2019-06-25T08:59:22.035Z,4432
2019-06-25T09:00:22.278Z,4494
2019-06-25T09:01:22.006Z,4494
2019-06-25T09:02:22.023Z,4488
2019-06-25T09:03:22.113Z,4421
2019-06-25T09:04:22.077Z,4471
2019-06-25T09:05:22.115Z,4528
2019-06-25T09:06:22.050Z,4556
2019-06-25T09:07:22.048Z,4539
2019-06-25T09:08:22.114Z,4522
2019-06-25T09:09:22.123Z,4471
2019-06-25T09:10:22.117Z,4460
2019-06-25T09:11:22.115Z,4443
2019-06-25T09:12:22.120Z,4438
2019-06-25T09:13:22.057Z,4415
2019-06-25T09:14:22.124Z,4426
2019-06-25T09:15:22.053Z,4466
2019-06-25T09:16:22.058Z,4494
2019-06-25T09:17:22.129Z,4522
2019-06-25T09:18:22.083Z,4595
2019-06-25T09:19:22.062Z,4629
2019-06-25T09:20:22.134Z,4657
2019-06-25T09:21:22.062Z,4674
2019-06-25T09:22:22.074Z,4651
2019-06-25T09:23:22.202Z,4629
2019-06-25T09:24:22.137Z,4606
2019-06-25T09:25:22.130Z,3903
2019-06-25T09:26:22.144Z,4668
2019-06-25T09:27:22.134Z,4770
2019-06-25T09:28:22.070Z,4775
2019-06-25T09:29:22.143Z,4623
2019-06-25T09:30:22.145Z,3976
2019-06-25T09:31:22.066Z,4815
2019-06-25T09:32:22.174Z,4944
2019-06-25T09:33:22.002Z,4567
2019-06-25T09:34:22.107Z,4736
2019-06-25T09:35:22.111Z,4809
2019-06-25T09:36:22.067Z,4910
2019-06-25T09:37:22.003Z,4803
2019-06-25T09:38:22.063Z,4505
2019-06-25T09:39:22.116Z,4201
2019-06-25T09:40:22.041Z,3960
2019-06-25T09:41:22.121Z,3628
2019-06-25T09:42:22.068Z,3397
2019-06-25T09:43:22.081Z,4168
2019-06-25T09:44:22.144Z,3211
2019-06-25T09:45:22.144Z,3380
2019-06-25T09:46:22.082Z,3240
2019-06-25T09:47:22.216Z,4213
2019-06-25T09:48:22.283Z,4831
2019-06-25T09:49:22.148Z,4809
2019-06-25T09:50:22.145Z,4888
2019-06-25T09:51:22.137Z,4927
2019-06-25T09:52:22.080Z,4966
2019-06-25T09:53:22.296Z,4938
2019-06-25T09:54:22.058Z,4893
2019-06-25T09:55:22.130Z,4016
2019-06-25T09:56:22.140Z,4736
2019-06-25T09:57:22.085Z,4803
2019-06-25T09:58:22.172Z,4848
2019-06-25T09:59:22.148Z,5040
2019-06-25T10:00:22.059Z,4860
2019-06-25T10:01:26.321Z,4747
2019-06-25T10:02:22.085Z,4786
2019-06-25T10:03:22.166Z,4843
2019-06-25T10:04:22.162Z,4567
2019-06-25T10:05:31.525Z,4353
2019-06-25T10:06:22.158Z,4539
2019-06-25T10:07:22.097Z,4663
2019-06-25T10:08:22.165Z,4696
2019-06-25T10:09:22.173Z,4696
2019-06-25T10:10:22.166Z,4623
2019-06-25T10:11:22.178Z,4657
2019-06-25T10:12:22.099Z,4438
2019-06-25T10:13:22.189Z,4629
2019-06-25T10:14:22.175Z,4640
2019-06-25T10:15:22.173Z,4640
2019-06-25T10:16:22.102Z,4629
2019-06-25T10:17:22.168Z,4590
2019-06-25T10:18:22.319Z,4680
2019-06-25T10:19:22.111Z,4725
2019-06-25T10:20:22.137Z,4848
2019-06-25T10:21:25.552Z,4989
2019-06-25T10:22:22.195Z,5186
2019-06-25T10:23:22.185Z,5107
2019-06-25T10:24:22.108Z,4753
2019-06-25T10:25:22.182Z,4629
2019-06-25T10:26:22.181Z,4089
2019-06-25T10:27:22.114Z,4100
2019-06-25T10:28:29.850Z,4421
2019-06-25T10:29:22.107Z,4083
2019-06-25T10:30:22.166Z,4528
2019-06-25T10:31:22.147Z,4983
2019-06-25T10:32:22.181Z,4786
2019-06-25T10:33:22.127Z,4713
2019-06-25T10:34:22.104Z,4741
2019-06-25T10:35:22.174Z,4657
2019-06-25T10:36:22.099Z,4466
2019-06-25T10:37:22.158Z,4753
2019-06-25T10:38:22.237Z,4680
2019-06-25T10:39:22.128Z,4978
2019-06-25T10:40:22.116Z,5141
2019-06-25T10:41:22.115Z,5096
2019-06-25T10:42:22.167Z,4792
2019-06-25T10:43:22.159Z,4803
2019-06-25T10:44:22.198Z,5011
2019-06-25T10:45:22.154Z,4910
2019-06-25T10:46:22.131Z,4809
2019-06-25T10:47:22.405Z,5017
2019-06-25T10:48:26.302Z,4950
2019-06-25T10:49:22.193Z,4955
2019-06-25T10:50:22.206Z,5034
2019-06-25T10:51:22.128Z,5118
2019-06-25T10:52:22.134Z,5045
2019-06-25T10:53:22.141Z,5056
2019-06-25T10:54:22.211Z,5023
2019-06-25T10:55:22.373Z,4950
2019-06-25T10:56:22.207Z,4910
2019-06-25T10:57:22.137Z,4905
2019-06-25T10:58:22.202Z,4933
2019-06-25T10:59:22.137Z,4950
2019-06-25T11:00:22.248Z,4978
2019-06-25T11:01:22.133Z,4961
2019-06-25T11:02:22.198Z,4921
2019-06-25T11:03:22.121Z,4893
2019-06-25T11:04:22.190Z,4860
2019-06-25T11:05:22.211Z,4798
2019-06-25T11:06:22.133Z,4741
2019-06-25T11:07:22.210Z,4691
2019-06-25T11:08:22.092Z,4786
2019-06-25T11:09:22.200Z,4865
2019-06-25T11:10:22.093Z,4910
2019-06-25T11:11:22.106Z,4893
2019-06-25T11:12:22.093Z,4826
2019-06-25T11:13:22.209Z,4815
2019-06-25T11:14:22.209Z,4865
2019-06-25T11:15:22.199Z,4882
2019-06-25T11:16:22.171Z,4938
2019-06-25T11:17:22.138Z,4972
2019-06-25T11:18:22.142Z,4989
2019-06-25T11:19:22.121Z,4944
2019-06-25T11:20:22.171Z,4950
2019-06-25T11:21:22.295Z,4955
2019-06-25T11:22:22.171Z,4972
2019-06-25T11:23:22.154Z,5000
2019-06-25T11:24:22.122Z,4989
2019-06-25T11:25:22.112Z,5011
2019-06-25T11:26:23.784Z,4989
2019-06-25T11:27:22.145Z,5011
2019-06-25T11:28:22.176Z,5000
2019-06-25T11:29:22.218Z,5000
2019-06-25T11:30:22.159Z,5051
2019-06-25T11:31:22.170Z,5101
2019-06-25T11:32:22.142Z,5101
2019-06-25T11:33:22.178Z,5079
2019-06-25T11:34:22.142Z,5062
2019-06-25T11:35:22.227Z,5073
2019-06-25T11:36:22.366Z,5017
2019-06-25T11:37:22.224Z,5023
2019-06-25T11:38:22.146Z,5040
2019-06-25T11:39:22.224Z,5034
2019-06-25T11:40:22.119Z,5068
2019-06-25T11:41:22.222Z,5163
2019-06-25T11:42:22.151Z,5259
2019-06-25T11:43:22.234Z,5332
2019-06-25T11:44:22.297Z,5332
2019-06-25T11:45:22.239Z,5338
2019-06-25T11:46:22.359Z,5276
2019-06-25T11:47:22.175Z,5304
2019-06-25T11:48:22.243Z,5265
2019-06-25T11:49:22.238Z,5276
2019-06-25T11:50:22.169Z,5220
2019-06-25T11:51:22.244Z,5169
2019-06-25T11:52:22.199Z,5141
2019-06-25T11:53:22.179Z,5085
2019-06-25T11:54:22.158Z,5028
2019-06-25T11:55:22.359Z,5000
2019-06-25T11:56:22.240Z,5045
2019-06-25T11:57:22.193Z,5068
2019-06-25T11:58:22.218Z,5051
2019-06-25T11:59:22.161Z,5062
2019-06-25T12:00:22.202Z,5090
2019-06-25T12:01:22.107Z,5073
2019-06-25T12:02:22.168Z,5085
2019-06-25T12:03:22.161Z,5073
2019-06-25T12:04:22.224Z,5045
2019-06-25T12:05:22.204Z,5062
2019-06-25T12:06:33.329Z,4966
2019-06-25T12:07:22.205Z,4893
2019-06-25T12:08:22.188Z,4871
2019-06-25T12:09:22.169Z,4882
2019-06-25T12:10:22.183Z,4848
2019-06-25T12:11:22.281Z,4893
2019-06-25T12:12:22.248Z,4854
2019-06-25T12:13:22.276Z,4882
2019-06-25T12:14:22.201Z,4876
2019-06-25T12:15:22.256Z,4927
2019-06-25T12:16:22.198Z,4933
2019-06-25T12:17:22.256Z,4938
2019-06-25T12:18:22.197Z,5040
2019-06-25T12:19:22.404Z,5107
2019-06-25T12:20:22.270Z,5124
2019-06-25T12:21:22.235Z,5023
2019-06-25T12:22:22.268Z,4893
2019-06-25T12:23:22.265Z,4730
2019-06-25T12:24:22.274Z,4601
2019-06-25T12:25:22.272Z,4528
2019-06-25T12:26:22.267Z,4488
2019-06-25T12:27:22.201Z,4477
2019-06-25T12:28:22.208Z,4494
2019-06-25T12:29:22.209Z,4522
2019-06-25T12:30:22.209Z,4584
2019-06-25T12:31:22.228Z,4629
2019-06-25T12:32:22.203Z,4674
2019-06-25T12:33:22.200Z,4741
2019-06-25T12:34:22.290Z,4770
2019-06-25T12:35:22.393Z,4775
2019-06-25T12:36:22.335Z,4747
2019-06-25T12:37:22.204Z,4747
2019-06-25T12:38:22.214Z,4820
2019-06-25T12:39:22.280Z,4854
2019-06-25T12:40:22.292Z,4837
2019-06-25T12:41:22.214Z,4792
2019-06-25T12:42:22.279Z,4725
2019-06-25T12:43:22.204Z,4651
2019-06-25T12:44:22.266Z,4629
2019-06-25T12:45:22.279Z,4573
2019-06-25T12:46:22.211Z,4528
2019-06-25T12:47:22.159Z,4505
2019-06-25T12:48:22.308Z,4567
2019-06-25T12:49:22.201Z,4646
2019-06-25T12:50:22.281Z,4657
2019-06-25T12:51:22.268Z,4668
2019-06-25T12:52:22.241Z,4696
2019-06-25T12:53:22.334Z,4719
2019-06-25T12:54:22.258Z,4736
2019-06-25T12:55:22.250Z,4764
2019-06-25T12:56:22.276Z,4803
2019-06-25T12:57:22.284Z,4882
2019-06-25T12:58:22.226Z,4938
2019-06-25T12:59:22.232Z,4921
2019-06-25T13:00:22.151Z,4803
2019-06-25T13:01:22.194Z,4691
2019-06-25T13:02:22.243Z,4561
2019-06-25T13:03:22.222Z,4483
2019-06-25T13:04:22.301Z,4443
2019-06-25T13:05:22.218Z,4387
2019-06-25T13:06:22.238Z,4325
2019-06-25T13:07:26.037Z,4269
2019-06-25T13:08:22.317Z,4263
2019-06-25T13:09:22.302Z,4291
2019-06-25T13:10:22.300Z,4314
2019-06-25T13:11:22.237Z,4381
2019-06-25T13:12:22.238Z,4432
2019-06-25T13:13:22.237Z,4477
2019-06-25T13:14:22.240Z,4477
2019-06-25T13:15:22.310Z,4455
2019-06-25T13:16:22.315Z,4449
2019-06-25T13:17:22.313Z,4404
2019-06-25T13:18:22.311Z,4365
2019-06-25T13:19:22.310Z,4303
2019-06-25T13:20:22.312Z,4224
2019-06-25T13:21:22.312Z,4207
2019-06-25T13:22:22.252Z,4258
2019-06-25T13:23:22.325Z,4325
2019-06-25T13:24:22.313Z,4359
2019-06-25T13:25:22.312Z,4325
2019-06-25T13:26:22.307Z,4246
2019-06-25T13:27:22.252Z,4196
2019-06-25T13:28:22.321Z,4168
2019-06-25T13:29:22.323Z,4196
2019-06-25T13:30:22.256Z,4179
2019-06-25T13:31:22.369Z,4151
2019-06-25T13:32:22.328Z,4095
2019-06-25T13:33:22.316Z,4072
2019-06-25T13:34:22.246Z,4061
2019-06-25T13:35:22.237Z,4050
2019-06-25T13:36:22.250Z,4005
2019-06-25T13:37:22.233Z,3954
2019-06-25T13:38:22.338Z,3898
2019-06-25T13:39:22.338Z,3853
2019-06-25T13:40:22.242Z,3785
2019-06-25T13:41:22.224Z,3751
2019-06-25T13:42:22.244Z,3723
2019-06-25T13:43:22.347Z,3706